createdAt,value
2022-08-12T00:02:02.810Z,39.80
2022-08-12T00:05:14.283Z,39.49
2022-08-12T00:08:16.461Z,38.54
2022-08-12T00:11:23.286Z,38.45
2022-08-12T00:14:22.822Z,38.76
2022-08-12T00:17:29.522Z,38.75
2022-08-12T00:20:29.734Z,39.07
2022-08-12T00:23:38.544Z,39.88
2022-08-12T00:26:42.958Z,40.42
2022-08-12T00:29:49.710Z,40.75
2022-08-12T00:32:54.859Z,40.91
2022-08-12T00:36:02.902Z,39.89
2022-08-12T00:39:03.459Z,40.27
2022-08-12T00:42:13.419Z,40.30
2022-08-12T00:44:54.483Z,40.84
2022-08-12T00:47:42.604Z,41.06
2022-08-12T00:50:26.828Z,41.51
2022-08-12T00:53:19.159Z,41.68
2022-08-12T00:56:15.825Z,41.55
2022-08-12T00:59:03.738Z,40.66
2022-08-12T01:02:10.504Z,40.44
2022-08-12T01:05:22.135Z,41.19
2022-08-12T01:08:21.926Z,41.17
2022-08-12T01:11:28.234Z,41.33
2022-08-12T01:14:09.465Z,42.11
2022-08-12T01:16:59.122Z,42.67
2022-08-12T01:19:40.482Z,42.95
2022-08-12T01:22:47.584Z,43.28
2022-08-12T01:25:31.868Z,43.17
2022-08-12T01:28:24.092Z,43.23
2022-08-12T01:31:15.825Z,43.25
2022-08-12T01:34:28.574Z,43.25
2022-08-12T01:37:19.890Z,43.61
2022-08-12T01:40:33.230Z,43.83
2022-08-12T01:43:16.494Z,44.31
2022-08-12T01:46:16.592Z,44.28
2022-08-12T01:49:03.878Z,44.21
2022-08-12T01:52:21.473Z,44.47
2022-08-12T01:55:13.526Z,44.86
2022-08-12T01:58:18.630Z,45.19
2022-08-12T02:01:16.090Z,44.77
2022-08-12T02:04:41.539Z,44.44
2022-08-12T02:08:13.257Z,44.55
2022-08-12T02:11:24.849Z,44.52
2022-08-12T02:14:48.528Z,44.92
2022-08-12T02:17:57.046Z,45.00
2022-08-12T02:20:51.676Z,45.23
2022-08-12T02:23:34.864Z,45.87
2022-08-12T02:26:25.508Z,45.32
2022-08-12T02:29:08.254Z,45.23
2022-08-12T02:31:57.539Z,44.79
2022-08-12T02:34:39.619Z,45.17
2022-08-12T02:37:31.028Z,45.17
2022-08-12T02:40:14.102Z,45.70
2022-08-12T02:43:09.554Z,46.19
2022-08-12T02:46:10.464Z,46.39
2022-08-12T02:49:07.538Z,46.13
2022-08-12T02:51:54.993Z,46.45
2022-08-12T02:54:50.567Z,46.07
2022-08-12T02:57:38.664Z,46.21
2022-08-12T03:00:23.668Z,46.86
2022-08-12T03:03:16.283Z,46.60
2022-08-12T03:06:08.530Z,46.50
2022-08-12T03:09:03.693Z,46.57
2022-08-12T03:11:53.072Z,47.02
2022-08-12T03:14:45.555Z,47.57
2022-08-12T03:18:24.678Z,47.58
2022-08-12T03:21:06.672Z,47.62
2022-08-12T03:23:48.555Z,47.76
2022-08-12T03:26:39.037Z,47.90
2022-08-12T03:29:22.551Z,48.05
2022-08-12T03:32:36.043Z,47.74
2022-08-12T03:35:39.880Z,48.03
2022-08-12T03:38:30.539Z,48.28
2022-08-12T03:41:36.563Z,48.31
2022-08-12T03:44:57.509Z,48.35
2022-08-12T03:47:56.594Z,48.35
2022-08-12T03:51:04.695Z,48.10
2022-08-12T03:54:04.720Z,48.29
2022-08-12T03:57:10.588Z,48.72
2022-08-12T04:00:10.947Z,48.66
2022-08-12T04:03:32.290Z,48.38
2022-08-12T04:06:17.971Z,48.47
2022-08-12T04:09:27.679Z,48.19
2022-08-12T04:12:39.523Z,48.92
2022-08-12T04:15:29.249Z,49.38
2022-08-12T04:18:09.684Z,49.60
2022-08-12T04:20:57.713Z,49.51
2022-08-12T04:23:45.084Z,49.58
2022-08-12T04:26:36.723Z,48.98
2022-08-12T04:29:19.002Z,48.63
2022-08-12T04:32:07.706Z,49.44
2022-08-12T04:34:50.636Z,49.59
2022-08-12T04:38:00.409Z,48.88
2022-08-12T04:40:42.595Z,49.26
2022-08-12T04:44:01.239Z,49.08
2022-08-12T04:46:34.321Z,49.19
2022-08-12T04:49:24.322Z,49.21
2022-08-12T04:52:06.747Z,49.56
2022-08-12T04:55:02.625Z,49.39
2022-08-12T04:57:50.348Z,49.26
2022-08-12T05:00:33.110Z,49.03
2022-08-12T05:03:20.600Z,48.94
2022-08-12T05:06:01.731Z,48.98
2022-08-12T05:08:48.608Z,49.28
2022-08-12T05:11:33.871Z,47.94
2022-08-12T05:14:20.644Z,46.69
2022-08-12T05:17:01.767Z,45.47
2022-08-12T05:19:57.445Z,43.81
2022-08-12T05:22:42.097Z,42.35
2022-08-12T05:25:31.654Z,41.03
2022-08-12T05:28:13.179Z,39.03
2022-08-12T05:31:06.678Z,37.57
2022-08-12T05:33:48.609Z,35.76
2022-08-12T05:36:35.624Z,34.60
2022-08-12T05:39:16.890Z,33.92
2022-08-12T05:42:04.623Z,33.10
2022-08-12T05:44:47.299Z,32.00
2022-08-12T05:47:52.276Z,31.03
2022-08-12T05:50:35.728Z,30.37
2022-08-12T05:53:26.654Z,29.42
2022-08-12T05:56:40.684Z,28.50
2022-08-12T05:59:28.660Z,27.42
2022-08-12T06:02:13.453Z,26.56
2022-08-12T06:05:04.646Z,25.75
2022-08-12T06:08:01.258Z,25.07
2022-08-12T06:10:52.729Z,24.57
2022-08-12T06:13:53.680Z,24.02
2022-08-12T06:16:43.189Z,22.99
2022-08-12T06:19:25.279Z,23.53
2022-08-12T06:22:34.062Z,22.85
2022-08-12T06:25:21.683Z,22.29
2022-08-12T06:28:10.691Z,22.73
2022-08-12T06:31:22.261Z,22.21
2022-08-12T06:35:23.080Z,21.55
2022-08-12T06:37:07.423Z,21.37
2022-08-12T06:39:59.075Z,21.81
2022-08-12T06:42:52.219Z,21.14
2022-08-12T06:45:45.805Z,20.87
2022-08-12T06:48:27.814Z,20.83
2022-08-12T06:51:16.683Z,20.27
2022-08-12T06:54:00.150Z,20.67
2022-08-12T06:57:03.500Z,20.29
2022-08-12T06:59:45.812Z,19.69
2022-08-12T07:02:37.028Z,19.78
2022-08-12T07:05:25.275Z,19.80
2022-08-12T07:08:13.701Z,19.83
2022-08-12T07:10:59.639Z,19.52
2022-08-12T07:14:12.433Z,19.36
2022-08-12T07:16:53.729Z,19.22
2022-08-12T07:19:45.639Z,19.14
2022-08-12T07:22:30.279Z,18.56
2022-08-12T07:25:40.489Z,18.72
2022-08-12T07:28:28.261Z,18.40
2022-08-12T07:31:18.356Z,17.26
2022-08-12T07:33:59.990Z,17.69
2022-08-12T07:36:49.092Z,17.41
2022-08-12T07:39:30.338Z,17.87
2022-08-12T07:42:18.148Z,16.61
2022-08-12T07:44:59.569Z,16.72
2022-08-12T07:47:50.098Z,17.26
2022-08-12T07:50:30.909Z,17.35
2022-08-12T07:53:18.087Z,17.54
2022-08-12T07:56:12.784Z,17.53
2022-08-12T08:02:03.790Z,18.17
2022-08-12T08:05:03.742Z,18.93
2022-08-12T08:07:44.904Z,19.66
2022-08-12T08:10:33.129Z,19.08
2022-08-12T08:13:15.432Z,19.11
2022-08-12T08:16:06.852Z,18.63
2022-08-12T08:18:56.104Z,18.52
2022-08-12T08:24:57.633Z,18.31
2022-08-12T08:27:52.803Z,18.40
2022-08-12T08:30:34.930Z,18.39
2022-08-12T08:34:01.594Z,18.66
2022-08-12T08:36:25.515Z,18.26
2022-08-12T08:39:18.563Z,18.26
2022-08-12T08:42:20.675Z,18.34
2022-08-12T08:45:19.791Z,17.84
2022-08-12T08:48:01.568Z,18.41
2022-08-12T08:51:04.430Z,18.35
2022-08-12T08:53:52.746Z,18.41
2022-08-12T08:56:50.762Z,18.52
2022-08-12T08:59:32.401Z,18.26
2022-08-12T09:02:20.587Z,17.80
2022-08-12T09:05:12.892Z,18.18
2022-08-12T09:08:15.439Z,18.26
2022-08-12T09:14:31.823Z,18.67
2022-08-12T09:17:14.186Z,19.01
2022-08-12T09:20:10.790Z,19.57
2022-08-12T09:22:57.074Z,19.94
2022-08-12T09:25:48.423Z,20.19
2022-08-12T09:28:37.009Z,20.21
2022-08-12T09:32:08.006Z,20.37
2022-08-12T09:34:33.563Z,19.58
2022-08-12T09:37:22.354Z,20.14
2022-08-12T09:41:01.725Z,20.00
2022-08-12T09:43:34.607Z,19.75
2022-08-12T09:46:25.238Z,19.52
2022-08-12T09:49:16.621Z,19.12
2022-08-12T09:51:58.690Z,19.40
2022-08-12T09:54:48.315Z,18.52
2022-08-12T09:58:46.719Z,19.37
2022-08-12T10:00:51.805Z,20.40
2022-08-12T10:04:03.174Z,20.35
2022-08-12T10:06:54.308Z,19.94
2022-08-12T10:09:58.027Z,20.26
2022-08-12T10:13:06.965Z,20.18
2022-08-12T10:15:57.992Z,19.59
2022-08-12T10:18:51.883Z,19.46
2022-08-12T10:21:45.137Z,19.62
2022-08-12T10:24:27.950Z,19.92
2022-08-12T10:27:39.556Z,20.29
2022-08-12T10:30:41.773Z,20.21
2022-08-12T10:33:33.665Z,19.90
2022-08-12T10:36:36.127Z,20.07
2022-08-12T10:40:02.009Z,20.19
2022-08-12T10:42:52.933Z,19.88
2022-08-12T10:45:42.409Z,20.08
2022-08-12T10:48:34.263Z,20.28
2022-08-12T10:52:03.592Z,20.35
2022-08-12T10:54:26.881Z,20.53
2022-08-12T10:57:18.416Z,20.37
2022-08-12T11:00:32.752Z,20.41
2022-08-12T11:04:27.907Z,20.66
2022-08-12T11:07:05.722Z,20.04
2022-08-12T11:09:42.082Z,19.65
2022-08-12T11:12:58.407Z,19.80
2022-08-12T11:16:19.531Z,19.58
2022-08-12T11:18:46.220Z,19.64
2022-08-12T11:21:58.304Z,19.66
2022-08-12T11:24:41.913Z,19.80
2022-08-12T11:27:38.964Z,19.97
2022-08-12T11:30:31.145Z,19.73
2022-08-12T11:33:24.444Z,20.08
2022-08-12T11:36:22.083Z,20.47
2022-08-12T11:39:12.934Z,19.91
2022-08-12T11:41:54.126Z,19.71
2022-08-12T11:44:43.430Z,19.80
2022-08-12T11:47:26.335Z,19.64
2022-08-12T11:50:18.878Z,20.12
2022-08-12T11:52:59.983Z,20.45
2022-08-12T11:55:57.876Z,20.38
2022-08-12T12:01:58.109Z,20.89
2022-08-12T12:02:02.421Z,20.52
2022-08-12T12:04:58.855Z,19.71
2022-08-12T12:08:41.203Z,19.63
2022-08-12T12:10:47.924Z,19.80
2022-08-12T12:14:06.879Z,19.90
2022-08-12T12:16:39.544Z,19.03
2022-08-12T12:19:23.060Z,18.95
2022-08-12T12:22:23.583Z,18.70
2022-08-12T12:25:09.042Z,18.90
2022-08-12T12:28:05.992Z,19.10
2022-08-12T12:30:54.650Z,19.22
2022-08-12T12:33:56.938Z,19.70
2022-08-12T12:36:39.196Z,19.72
2022-08-12T12:39:27.663Z,19.57
2022-08-12T12:42:43.138Z,19.89
2022-08-12T12:45:26.127Z,19.51
2022-08-12T12:48:16.251Z,19.72
2022-08-12T12:51:51.753Z,19.55
2022-08-12T12:54:28.941Z,19.21
2022-08-12T12:57:21.794Z,19.12
2022-08-12T13:00:24.960Z,18.69
2022-08-12T13:03:18.996Z,18.84
2022-08-12T13:06:01.160Z,19.04
2022-08-12T13:08:51.082Z,19.08
2022-08-12T13:11:41.765Z,19.38
2022-08-12T13:14:31.992Z,19.26
2022-08-12T13:17:19.842Z,19.40
2022-08-12T13:20:12.307Z,19.68
2022-08-12T13:23:35.867Z,19.38
2022-08-12T13:26:23.970Z,18.82
2022-08-12T13:29:11.305Z,19.21
2022-08-12T13:32:18.738Z,19.19
2022-08-12T13:35:04.381Z,19.14
2022-08-12T13:38:07.059Z,19.39
2022-08-12T13:40:49.126Z,19.41
2022-08-12T13:43:41.292Z,19.79
2022-08-12T13:46:23.140Z,19.96
2022-08-12T13:49:17.237Z,19.55
2022-08-12T13:52:02.126Z,19.45
2022-08-12T13:54:56.382Z,19.65
2022-08-12T13:57:47.134Z,19.68
2022-08-12T14:00:39.024Z,20.05
2022-08-12T14:03:50.992Z,20.18
2022-08-12T14:06:30.391Z,20.21
2022-08-12T14:09:20.089Z,20.44
2022-08-12T14:12:03.234Z,20.42
2022-08-12T14:14:55.487Z,20.36
2022-08-12T14:17:38.798Z,20.42
2022-08-12T14:20:28.439Z,20.24
2022-08-12T14:24:01.587Z,20.31
2022-08-12T14:26:24.988Z,20.38
2022-08-12T14:29:05.995Z,20.57
2022-08-12T14:31:56.083Z,20.01
2022-08-12T14:34:37.753Z,20.25
2022-08-12T14:37:56.898Z,20.07
2022-08-12T14:40:28.464Z,20.09
2022-08-12T14:43:17.112Z,19.67
2022-08-12T14:45:59.743Z,19.70
2022-08-12T14:48:52.734Z,19.76
2022-08-12T14:53:11.632Z,19.88
2022-08-12T14:56:59.270Z,19.75
2022-08-12T14:58:02.123Z,19.56
2022-08-12T15:01:03.380Z,19.79
2022-08-12T15:04:26.201Z,19.35
2022-08-12T15:07:07.109Z,19.58
2022-08-12T15:10:31.139Z,19.61
2022-08-12T15:13:15.091Z,19.26
2022-08-12T15:16:03.399Z,19.11
2022-08-12T15:18:55.282Z,19.49
2022-08-12T15:22:35.788Z,19.34
2022-08-12T15:24:48.907Z,19.12
2022-08-12T15:28:04.006Z,19.49
2022-08-12T15:30:38.128Z,19.73
2022-08-12T15:33:45.294Z,19.52
2022-08-12T15:36:55.258Z,19.33
2022-08-12T15:39:37.219Z,19.01
2022-08-12T15:42:18.155Z,19.30
2022-08-12T15:45:08.627Z,18.60
2022-08-12T15:48:16.483Z,18.68
2022-08-12T15:51:02.847Z,19.10
2022-08-12T15:54:02.955Z,18.95
2022-08-12T15:56:52.403Z,18.43
2022-08-12T15:59:51.559Z,18.59
2022-08-12T16:02:54.070Z,18.43
2022-08-12T16:06:11.026Z,19.08
2022-08-12T16:08:48.035Z,19.45
2022-08-12T16:11:41.363Z,19.27
2022-08-12T16:14:30.400Z,19.38
2022-08-12T16:17:15.431Z,19.58
2022-08-12T16:20:05.794Z,19.41
2022-08-12T16:22:48.035Z,19.04
2022-08-12T16:26:02.711Z,19.38
2022-08-12T16:28:41.184Z,19.11
2022-08-12T16:31:30.809Z,19.40
2022-08-12T16:34:26.159Z,19.06
2022-08-12T16:37:32.662Z,22.14
2022-08-12T16:40:29.169Z,22.69
2022-08-12T16:43:33.565Z,23.48
2022-08-12T16:46:32.546Z,23.55
2022-08-12T16:49:20.457Z,23.87
2022-08-12T16:52:07.950Z,23.79
2022-08-12T16:55:01.091Z,24.12
2022-08-12T16:57:53.982Z,23.98
2022-08-12T17:00:35.075Z,24.21
2022-08-12T17:03:28.877Z,24.32
2022-08-12T17:06:19.622Z,23.91
2022-08-12T17:09:17.276Z,24.42
2022-08-12T17:12:02.339Z,24.56
2022-08-12T17:14:53.103Z,24.79
2022-08-12T17:17:39.192Z,24.69
2022-08-12T17:20:37.407Z,25.15
2022-08-12T17:23:23.520Z,25.42
2022-08-12T17:26:12.235Z,25.23
2022-08-12T17:28:55.107Z,25.71
2022-08-12T17:32:00.765Z,25.13
2022-08-12T17:35:02.135Z,24.96
2022-08-12T17:37:50.890Z,25.50
2022-08-12T17:40:37.391Z,25.16
2022-08-12T17:43:54.762Z,25.59
2022-08-12T17:46:33.696Z,25.96
2022-08-12T17:50:03.497Z,25.76
2022-08-12T17:52:33.540Z,26.39
2022-08-12T17:55:40.214Z,26.75
2022-08-12T17:58:42.119Z,26.65
2022-08-12T18:01:39.271Z,26.95
2022-08-12T18:04:35.649Z,27.88
2022-08-12T18:07:28.006Z,27.52
2022-08-12T18:10:10.110Z,27.64
2022-08-12T18:12:58.531Z,28.03
2022-08-12T18:16:04.279Z,28.63
2022-08-12T18:18:51.935Z,28.28
2022-08-12T18:22:01.600Z,28.40
2022-08-12T18:24:48.292Z,28.32
2022-08-12T18:27:44.940Z,28.10
2022-08-12T18:30:42.275Z,28.03
2022-08-12T18:33:26.140Z,28.00
2022-08-12T18:36:22.160Z,27.89
2022-08-12T18:39:05.556Z,27.94
2022-08-12T18:41:53.687Z,28.54
2022-08-12T18:44:34.151Z,28.61
2022-08-12T18:47:23.771Z,29.11
2022-08-12T18:50:06.055Z,29.37
2022-08-12T18:53:02.519Z,29.52
2022-08-12T18:55:59.339Z,30.22
2022-08-12T18:58:59.350Z,30.24
2022-08-12T19:02:21.288Z,30.62
2022-08-12T19:04:50.495Z,31.35
2022-08-12T19:07:49.511Z,31.29
2022-08-12T19:10:50.758Z,31.73
2022-08-12T19:13:50.139Z,31.92
2022-08-12T19:16:50.129Z,32.13
2022-08-12T19:19:41.644Z,32.29
2022-08-12T19:22:32.267Z,32.34
2022-08-12T19:26:01.279Z,32.73
2022-08-12T19:28:41.354Z,33.11
2022-08-12T19:31:57.321Z,32.84
2022-08-12T19:38:04.398Z,33.62
2022-08-12T19:40:56.504Z,33.62
2022-08-12T19:43:59.133Z,33.80
2022-08-12T19:46:51.912Z,34.05
2022-08-12T19:49:34.499Z,34.01
2022-08-12T19:52:27.459Z,34.02
2022-08-12T19:55:19.913Z,34.21
2022-08-12T19:58:11.922Z,33.82
2022-08-12T20:00:59.197Z,34.31
2022-08-12T20:03:57.672Z,34.19
2022-08-12T20:06:51.588Z,34.38
2022-08-12T20:09:41.293Z,34.02
2022-08-12T20:12:32.578Z,34.27
2022-08-12T20:15:22.119Z,34.30
2022-08-12T20:18:07.193Z,33.69
2022-08-12T20:21:16.386Z,33.67
2022-08-12T20:24:05.204Z,33.54
2022-08-12T20:26:58.381Z,33.70
2022-08-12T20:29:46.281Z,33.52
2022-08-12T20:32:37.626Z,33.46
2022-08-12T20:36:06.013Z,33.28
2022-08-12T20:38:40.544Z,33.60
2022-08-12T20:41:21.639Z,33.62
2022-08-12T20:44:17.073Z,33.58
2022-08-12T20:46:58.449Z,33.75
2022-08-12T20:49:56.022Z,33.62
2022-08-12T20:52:45.163Z,33.83
2022-08-12T20:55:43.686Z,33.78
2022-08-12T20:58:41.238Z,34.16
2022-08-12T21:01:46.609Z,34.33
2022-08-12T21:04:49.245Z,33.98
2022-08-12T21:07:40.903Z,34.05
2022-08-12T21:10:35.816Z,34.29
2022-08-12T21:13:26.737Z,34.45
2022-08-12T21:16:11.605Z,34.40
2022-08-12T21:19:01.173Z,34.93
2022-08-12T21:21:50.502Z,34.88
2022-08-12T21:24:46.641Z,35.14
2022-08-12T21:27:59.337Z,34.99
2022-08-12T21:30:39.160Z,35.18
2022-08-12T21:33:23.235Z,34.93
2022-08-12T21:36:22.830Z,35.26
2022-08-12T21:39:21.612Z,35.37
2022-08-12T21:42:11.403Z,35.42
2022-08-12T21:45:45.457Z,35.18
2022-08-12T21:48:05.859Z,35.47
2022-08-12T21:50:47.822Z,35.26
2022-08-12T21:54:07.583Z,35.92
2022-08-12T21:56:57.259Z,36.28
2022-08-12T21:59:45.138Z,35.18
2022-08-12T22:02:48.489Z,35.37
2022-08-12T22:05:54.251Z,35.43
2022-08-12T22:08:38.256Z,35.87
2022-08-12T22:11:42.039Z,35.78
2022-08-12T22:14:27.059Z,35.71
2022-08-12T22:17:14.375Z,35.88
2022-08-12T22:20:01.278Z,35.87
2022-08-12T22:22:56.304Z,35.61
2022-08-12T22:25:40.037Z,35.98
2022-08-12T22:28:45.927Z,36.05
2022-08-12T22:31:29.043Z,36.35
2022-08-12T22:34:18.788Z,36.83
2022-08-12T22:37:00.025Z,36.63
2022-08-12T22:39:49.624Z,36.85
2022-08-12T22:42:51.491Z,36.11
2022-08-12T22:45:59.248Z,36.56
2022-08-12T22:48:50.246Z,37.23
2022-08-12T22:52:00.377Z,36.65
2022-08-12T22:55:00.203Z,36.72
2022-08-12T22:57:56.271Z,36.93
2022-08-12T23:00:45.320Z,36.70
2022-08-12T23:03:48.031Z,37.01
2022-08-12T23:06:41.664Z,36.82
2022-08-12T23:09:44.762Z,36.77
2022-08-12T23:12:55.674Z,36.34
2022-08-12T23:15:39.598Z,37.08
2022-08-12T23:18:35.311Z,37.27
2022-08-12T23:21:18.698Z,37.79
2022-08-12T23:24:13.821Z,37.77
2022-08-12T23:27:16.900Z,37.90
2022-08-12T23:30:18.914Z,37.65
2022-08-12T23:33:20.592Z,37.44
2022-08-12T23:36:17.694Z,37.68
2022-08-12T23:40:13.537Z,37.38
2022-08-12T23:42:22.371Z,37.80
2022-08-12T23:45:20.767Z,37.66
2022-08-12T23:48:31.219Z,37.98
2022-08-12T23:51:22.436Z,37.63
2022-08-12T23:54:17.850Z,38.28
2022-08-12T23:58:18.182Z,38.42
